Ana Sayfa
METAR-TAF:

METAR-TAF

Havaalanları :

Fort-de-France, Martinique

Enlem: 14-36N, Boylam: 061-00W, yükseklik: 5 m

Güncel hava durumu gözlemi

Rapor saat 13:00 UTC de 12 dakika önce yapıldı.
Rüzgar doğudan 10 kt
Sıcaklık 30°C
Nem 62%
Basınç 1013 hPa
Görüş mesafesi 10 km veya daha fazla
2900 ft yükseklikte az bulutlu

METAR: TFFF 221300Z AUTO 10010KT 9999 FEW029 30/22 Q1013 NOSIG

Saat: 09:12 (13:12 UTC)

Tahmin

Rapor saat 10:00 UTC de 3 saat ve 12 dakika önce yapıldı.
Ayın 22'si saat 12 UTC'den ayın 23'si saat 12 UTC'ye kadar geçerli Tahmin
Rüzgar doğudan 8 kt
Görüş mesafesi 10 km veya daha fazla
3000 ft yükseklikte parçalı bulutlu

TAF: TFFF 221000Z 2212/2312 10008KT 9999 SCT030

4.000'den fazla havaalanı için hava durumu gözlemleri ve tahminleri (METAR ve TAF raporları).

Kullanılabilir istasyonlar harita üzerinde sarı ve kırmızı noktalarla gösterilir.

İstasyonun adını görmek için fareyi noktanın üzerinde gezdirin.

Sonrasında hava gözlem ve tahminlerini görmek için tıklayın.

Haritayı değiştirmek için: yaklaştırmak için siyah artı işaretli yeşil düğmeye ve uzaklaştırmak için de eksi işaretli düğmeye hızla tıklayın; bitişik haritalar için yeşil okları kullanın.


METAR-TAF: